Time;durP1;ratioP1;P1;durP2;ratioP2;P2;SDS_P1;SDS_P2;PMS_P1;PMS_P2;Temp;Humidity;BMP_temperature;BMP_pressure;BME280_temperature;BME280_humidity;BME280_pressure;Samples;Min_cycle;Max_cycle;Signal;HPM_P1;HPM_P2
2022/11/13 00:01:47;;;;;;;163.97;49.10;;;2.80;99.90;;;;;;5053514;28;20222;-73
2022/11/13 00:04:15;;;;;;;282.77;56.83;;;2.80;99.90;;;;;;5053384;28;20253;-73
2022/11/13 00:06:41;;;;;;;321.23;58.90;;;2.80;99.90;;;;;;5053169;28;20562;-73
2022/11/13 00:09:10;;;;;;;90.07;46.23;;;2.70;99.90;;;;;;5053232;28;20210;-72
2022/11/13 00:11:37;;;;;;;139.37;47.47;;;2.70;99.90;;;;;;5053312;28;20657;-72
2022/11/13 00:14:05;;;;;;;244.37;55.50;;;2.70;99.90;;;;;;5053392;28;20220;-73
2022/11/13 00:16:32;;;;;;;194.27;51.30;;;2.60;99.90;;;;;;5053380;28;20193;-73
2022/11/13 00:18:58;;;;;;;419.77;65.17;;;2.60;99.90;;;;;;5053207;28;20198;-72
2022/11/13 00:21:27;;;;;;;53.73;37.57;;;2.50;99.90;;;;;;5052989;28;20222;-73
2022/11/13 00:23:55;;;;;;;187.17;48.47;;;2.50;99.90;;;;;;5053105;28;20251;-73
2022/11/13 00:26:23;;;;;;;136.43;44.33;;;2.50;99.90;;;;;;5053251;28;20244;-72
2022/11/13 00:28:53;;;;;;;103.23;45.73;;;2.40;99.90;;;;;;5053519;28;20206;-72
2022/11/13 00:31:20;;;;;;;160.27;48.33;;;2.40;99.90;;;;;;5053169;28;20205;-72
2022/11/13 00:33:46;;;;;;;172.67;49.17;;;2.40;99.90;;;;;;5053420;28;20259;-73
2022/11/13 00:36:16;;;;;;;100.40;44.53;;;2.40;99.90;;;;;;5053490;28;20268;-72
2022/11/13 00:38:44;;;;;;;119.17;45.80;;;2.30;99.90;;;;;;5053639;28;20202;-72
2022/11/13 00:41:11;;;;;;;108.83;43.83;;;2.40;99.90;;;;;;5053977;28;20218;-73
2022/11/13 00:43:38;;;;;;;106.07;44.80;;;2.40;99.90;;;;;;5054178;28;20205;-73
2022/11/13 00:46:05;;;;;;;79.73;42.17;;;2.40;99.90;;;;;;5054129;28;20623;-72
2022/11/13 00:48:31;;;;;;;65.37;39.43;;;2.40;99.90;;;;;;5060953;28;20197;-73
2022/11/13 00:50:58;;;;;;;81.50;41.60;;;2.40;99.90;;;;;;5061415;28;20201;-72
2022/11/13 00:53:25;;;;;;;125.90;43.63;;;2.40;99.90;;;;;;5063323;28;20198;-74
2022/11/13 00:55:53;;;;;;;120.13;44.17;;;2.40;99.90;;;;;;5061388;28;20198;-72
2022/11/13 00:58:19;;;;;;;128.57;44.97;;;2.30;99.90;;;;;;5059801;28;20199;-73
2022/11/13 01:00:47;;;;;;;134.70;48.23;;;2.30;99.90;;;;;;5057636;28;20224;-72
2022/11/13 01:03:15;;;;;;;96.67;40.63;;;2.30;99.90;;;;;;5056734;28;20233;-72
2022/11/13 01:05:44;;;;;;;97.97;42.70;;;2.30;99.90;;;;;;5056722;28;20211;-73
2022/11/13 01:08:12;;;;;;;202.23;47.60;;;2.30;99.90;;;;;;5056581;28;20232;-72
2022/11/13 01:10:40;;;;;;;98.60;41.20;;;2.20;99.90;;;;;;5056509;28;20201;-72
2022/11/13 01:13:08;;;;;;;184.40;47.07;;;2.20;99.90;;;;;;5056723;28;20244;-72
2022/11/13 01:15:38;;;;;;;178.13;45.30;;;2.30;99.90;;;;;;5056571;28;20337;-72
2022/11/13 01:18:04;;;;;;;99.80;42.87;;;2.20;99.90;;;;;;5056509;28;20231;-73
2022/11/13 01:20:31;;;;;;;212.33;43.70;;;2.00;99.90;;;;;;5056659;28;20252;-72
2022/11/13 01:22:58;;;;;;;129.57;42.13;;;2.00;99.90;;;;;;5056306;28;20626;-73
2022/11/13 01:25:25;;;;;;;108.47;45.10;;;2.00;99.90;;;;;;5056378;28;20198;-72
2022/11/13 01:27:52;;;;;;;159.17;42.30;;;2.00;99.90;;;;;;5056336;28;20220;-72
2022/11/13 01:30:20;;;;;;;158.93;45.20;;;1.90;99.90;;;;;;5056378;28;20201;-72
2022/11/13 01:32:47;;;;;;;214.47;46.13;;;1.80;99.90;;;;;;5056799;28;20255;-72
2022/11/13 01:35:13;;;;;;;204.27;43.97;;;1.70;99.90;;;;;;5056260;28;20201;-73
2022/11/13 01:37:40;;;;;;;183.70;45.40;;;1.70;99.90;;;;;;5056367;28;20224;-73
2022/11/13 01:40:08;;;;;;;131.00;42.67;;;1.60;99.90;;;;;;5056133;28;20202;-72
2022/11/13 01:42:34;;;;;;;146.07;43.50;;;1.50;99.90;;;;;;5055945;28;20777;-72
2022/11/13 01:45:02;;;;;;;63.33;36.33;;;1.50;99.90;;;;;;5055992;28;20202;-73
2022/11/13 01:47:31;;;;;;;79.27;39.07;;;1.40;99.90;;;;;;5056151;28;20198;-72
2022/11/13 01:50:00;;;;;;;82.73;39.40;;;1.40;99.90;;;;;;5055976;28;20661;-73
2022/11/13 01:52:30;;;;;;;62.47;38.73;;;1.30;99.90;;;;;;5055872;28;20194;-73
2022/11/13 01:55:01;;;;;;;62.63;37.30;;;1.20;99.90;;;;;;5055718;28;20584;-72
2022/11/13 01:57:28;;;;;;;54.87;36.83;;;1.20;99.90;;;;;;5055632;28;20198;-72
2022/11/13 01:59:58;;;;;;;55.10;34.83;;;1.10;99.90;;;;;;5055814;28;20271;-72
2022/11/13 02:02:25;;;;;;;65.97;35.93;;;1.10;99.90;;;;;;5055864;28;20255;-73
2022/11/13 02:04:53;;;;;;;52.57;34.27;;;1.00;99.90;;;;;;5055053;28;20201;-72
2022/11/13 02:07:22;;;;;;;81.00;36.47;;;0.90;99.90;;;;;;5055665;28;20233;-72
2022/11/13 02:09:50;;;;;;;60.00;34.37;;;0.80;99.90;;;;;;5055890;28;20201;-72
2022/11/13 02:12:25;;;;;;;56.70;34.43;;;0.80;99.90;;;;;;5058437;28;20219;-72
2022/11/13 02:14:54;;;;;;;43.07;29.67;;;0.80;99.90;;;;;;5057300;28;20618;-72
2022/11/13 02:17:26;;;;;;;42.00;29.50;;;0.70;99.90;;;;;;5056846;28;20201;-72
2022/11/13 02:19:58;;;;;;;42.33;30.73;;;0.70;99.90;;;;;;5056758;28;20546;-72
2022/11/13 02:22:31;;;;;;;45.53;30.63;;;0.70;99.90;;;;;;5055769;28;20715;-72
2022/11/13 02:25:01;;;;;;;39.60;28.43;;;0.60;99.90;;;;;;5055801;28;20206;-72
2022/11/13 02:27:36;;;;;;;40.57;28.73;;;0.50;99.90;;;;;;5055913;28;20534;-72
2022/11/13 02:30:12;;;;;;;40.80;28.03;;;0.50;99.90;;;;;;5055981;28;20296;-72
2022/11/13 02:32:43;;;;;;;40.13;27.97;;;0.40;99.90;;;;;;5055792;28;20197;-72
2022/11/13 02:35:09;;;;;;;35.60;26.37;;;0.30;99.90;;;;;;5055682;28;20347;-73
2022/11/13 02:37:36;;;;;;;34.40;24.87;;;0.20;99.90;;;;;;5055447;28;20591;-72
2022/11/13 02:40:05;;;;;;;41.60;29.50;;;0.20;99.90;;;;;;5055552;28;20252;-72
2022/11/13 02:42:32;;;;;;;41.37;28.97;;;0.10;99.90;;;;;;5054877;28;20720;-72
2022/11/13 02:44:59;;;;;;;45.27;28.57;;;0.10;99.90;;;;;;5054972;28;20251;-72
2022/11/13 02:47:25;;;;;;;40.50;28.33;;;0.10;99.90;;;;;;5054911;28;20392;-73
2022/11/13 02:49:52;;;;;;;41.47;27.23;;;0.00;99.90;;;;;;5055274;28;20261;-72
2022/11/13 02:52:18;;;;;;;36.90;27.23;;;0.00;99.90;;;;;;5055241;28;20404;-72
2022/11/13 02:54:45;;;;;;;40.30;28.67;;;0.00;99.90;;;;;;5054865;28;20243;-72
2022/11/13 02:57:13;;;;;;;41.07;26.83;;;0.00;99.90;;;;;;5055123;28;20202;-72
2022/11/13 02:59:40;;;;;;;45.30;29.00;;;-0.10;99.90;;;;;;5055617;28;20255;-72
2022/11/13 03:02:07;;;;;;;36.33;26.00;;;-0.10;99.90;;;;;;5054752;28;20559;-72
2022/11/13 03:04:34;;;;;;;40.90;26.57;;;-0.10;99.90;;;;;;5054973;28;20607;-72
2022/11/13 03:07:01;;;;;;;43.83;29.47;;;-0.20;99.90;;;;;;5054573;28;20701;-72
2022/11/13 03:09:27;;;;;;;46.37;29.73;;;-0.20;99.90;;;;;;5054717;28;20225;-72
2022/11/13 03:11:54;;;;;;;38.80;28.33;;;-0.10;99.90;;;;;;5054885;28;20251;-72
2022/11/13 03:14:22;;;;;;;44.83;30.37;;;-0.10;99.90;;;;;;5054560;28;20198;-72
2022/11/13 03:16:49;;;;;;;37.73;26.87;;;-0.20;99.90;;;;;;5054492;28;20710;-72
2022/11/13 03:19:15;;;;;;;36.43;26.93;;;-0.20;99.90;;;;;;5054921;28;20259;-73
2022/11/13 03:21:42;;;;;;;37.00;26.93;;;-0.20;99.90;;;;;;5054682;28;20198;-72
2022/11/13 03:24:08;;;;;;;35.63;26.80;;;-0.20;99.90;;;;;;5054524;28;20193;-73
2022/11/13 03:26:35;;;;;;;32.43;24.17;;;-0.20;99.90;;;;;;5054381;28;20576;-73
2022/11/13 03:29:02;;;;;;;32.63;24.07;;;-0.20;99.90;;;;;;5054847;28;20240;-72
2022/11/13 03:31:30;;;;;;;31.60;25.10;;;-0.20;99.90;;;;;;5054366;28;20248;-72
2022/11/13 03:33:56;;;;;;;32.73;24.07;;;-0.20;99.90;;;;;;5054197;28;20251;-73
2022/11/13 03:36:23;;;;;;;32.80;23.97;;;-0.20;99.90;;;;;;5054209;28;20272;-72
2022/11/13 03:38:50;;;;;;;29.00;23.07;;;-0.20;99.90;;;;;;5054117;28;20271;-73
2022/11/13 03:41:17;;;;;;;29.37;22.77;;;-0.20;99.90;;;;;;5054176;28;20657;-73
2022/11/13 03:43:43;;;;;;;31.30;23.80;;;-0.20;99.90;;;;;;5053790;28;20747;-73
2022/11/13 03:46:10;;;;;;;29.60;22.37;;;-0.10;99.90;;;;;;5054291;28;20735;-72
2022/11/13 03:48:38;;;;;;;26.70;21.37;;;-0.10;99.90;;;;;;5054148;28;20197;-72
2022/11/13 03:51:05;;;;;;;28.80;23.00;;;-0.30;99.90;;;;;;5054589;28;20202;-72
2022/11/13 03:53:32;;;;;;;30.33;22.30;;;-0.20;99.90;;;;;;5055318;28;20201;-72
2022/11/13 03:55:59;;;;;;;28.70;22.40;;;-0.20;99.90;;;;;;5055850;28;20198;-72
2022/11/13 03:58:25;;;;;;;29.27;22.80;;;-0.20;99.90;;;;;;5056900;28;20228;-72
2022/11/13 04:00:54;;;;;;;29.47;22.40;;;-0.20;99.90;;;;;;5056779;28;20248;-71
2022/11/13 04:03:21;;;;;;;28.07;21.70;;;-0.20;99.90;;;;;;5056970;28;20225;-71
2022/11/13 04:05:50;;;;;;;27.67;21.30;;;-0.30;99.90;;;;;;5057708;28;20193;-72
2022/11/13 04:08:18;;;;;;;26.97;20.60;;;-0.30;99.90;;;;;;5056380;28;20197;-72
2022/11/13 04:10:45;;;;;;;26.60;20.70;;;-0.30;99.90;;;;;;5055687;28;20707;-72
2022/11/13 04:13:12;;;;;;;28.23;22.00;;;-0.30;99.90;;;;;;5056268;28;20202;-71
2022/11/13 04:15:38;;;;;;;26.30;20.60;;;-0.40;99.90;;;;;;5056510;28;20657;-72
2022/11/13 04:18:05;;;;;;;26.73;21.00;;;-0.40;99.90;;;;;;5056765;28;20252;-72
2022/11/13 04:20:32;;;;;;;29.43;21.07;;;-0.50;99.90;;;;;;5056868;28;20202;-72
2022/11/13 04:23:00;;;;;;;27.97;20.53;;;-0.60;99.90;;;;;;5056939;28;20218;-72
2022/11/13 04:25:27;;;;;;;24.07;18.70;;;-0.70;99.90;;;;;;5056689;28;20197;-72
2022/11/13 04:27:54;;;;;;;24.77;19.43;;;-0.70;99.90;;;;;;5059228;28;20200;-72
2022/11/13 04:30:20;;;;;;;28.20;20.07;;;-0.70;99.90;;;;;;5060493;28;20198;-72
2022/11/13 04:32:47;;;;;;;27.00;20.03;;;-0.70;99.90;;;;;;5060107;28;20256;-72
2022/11/13 04:35:14;;;;;;;25.70;19.50;;;-0.70;99.90;;;;;;5060166;28;20244;-72
2022/11/13 04:37:40;;;;;;;24.87;19.50;;;-0.70;99.90;;;;;;5060974;28;20220;-72
2022/11/13 04:40:10;;;;;;;24.67;20.20;;;-0.80;99.90;;;;;;5060545;28;20251;-72
2022/11/13 04:42:48;;;;;;;25.97;20.73;;;-0.70;99.90;;;;;;5060253;28;20683;-72
2022/11/13 04:45:15;;;;;;;26.47;19.37;;;-0.80;99.90;;;;;;5059993;28;20279;-72
2022/11/13 04:47:42;;;;;;;28.17;21.33;;;-0.80;99.90;;;;;;5059900;28;20193;-72
2022/11/13 04:50:09;;;;;;;29.80;21.33;;;-0.80;99.90;;;;;;5059715;28;20223;-72
2022/11/13 04:52:36;;;;;;;27.43;20.83;;;-0.70;99.90;;;;;;5059591;28;20212;-72
2022/11/13 04:55:03;;;;;;;29.47;21.27;;;-0.70;99.90;;;;;;5059980;28;20197;-72
2022/11/13 04:57:31;;;;;;;27.77;21.70;;;-0.70;99.90;;;;;;5059813;28;20197;-72
2022/11/13 04:59:58;;;;;;;29.80;22.30;;;-0.80;99.90;;;;;;5059813;28;20194;-72
2022/11/13 05:02:24;;;;;;;28.77;21.93;;;-0.80;99.90;;;;;;5059569;28;20197;-72
2022/11/13 05:04:51;;;;;;;29.30;22.03;;;-0.80;99.90;;;;;;5059615;28;20197;-72
2022/11/13 05:07:18;;;;;;;30.33;22.73;;;-0.80;99.90;;;;;;5059533;28;20233;-72
2022/11/13 05:09:44;;;;;;;28.33;21.43;;;-0.70;99.90;;;;;;5059402;28;20201;-72
2022/11/13 05:12:11;;;;;;;29.53;21.60;;;-0.80;99.90;;;;;;5059580;28;20247;-72
2022/11/13 05:14:40;;;;;;;28.30;21.53;;;-0.80;99.90;;;;;;5059526;28;20201;-72
2022/11/13 05:17:10;;;;;;;27.03;21.53;;;-0.80;99.90;;;;;;5059590;28;20248;-72
2022/11/13 05:19:37;;;;;;;25.93;20.70;;;-1.00;99.90;;;;;;5059655;28;20252;-72
2022/11/13 05:22:04;;;;;;;28.67;21.37;;;-0.90;99.90;;;;;;5059854;28;20201;-72
2022/11/13 05:24:31;;;;;;;27.17;20.80;;;-1.00;99.90;;;;;;5059904;28;20236;-72
2022/11/13 05:26:58;;;;;;;27.67;21.73;;;-1.00;99.90;;;;;;5059470;28;20275;-72
2022/11/13 05:29:25;;;;;;;30.97;22.20;;;-1.00;99.90;;;;;;5059495;28;20263;-72
2022/11/13 05:31:53;;;;;;;29.10;21.97;;;-1.00;99.90;;;;;;5059385;28;20247;-72
2022/11/13 05:34:19;;;;;;;28.97;22.17;;;-1.00;99.90;;;;;;5059686;28;20228;-72
2022/11/13 05:36:46;;;;;;;29.20;22.47;;;-1.00;99.90;;;;;;5059418;28;20201;-72
2022/11/13 05:39:13;;;;;;;27.90;22.77;;;-1.00;99.90;;;;;;5056767;28;20193;-72
2022/11/13 05:41:40;;;;;;;27.60;21.97;;;-1.00;99.90;;;;;;5056147;28;20220;-73
2022/11/13 05:44:07;;;;;;;27.77;21.57;;;-1.00;99.90;;;;;;5056383;28;20697;-72
2022/11/13 05:46:33;;;;;;;27.93;21.53;;;-1.00;99.90;;;;;;5055838;28;20252;-73
2022/11/13 05:49:02;;;;;;;29.93;22.27;;;-1.00;99.90;;;;;;5056027;28;20271;-73
2022/11/13 05:51:30;;;;;;;27.97;22.00;;;-1.00;99.90;;;;;;5056008;28;20255;-72
2022/11/13 05:53:58;;;;;;;27.17;20.87;;;-1.00;99.90;;;;;;5055861;28;20595;-73
2022/11/13 05:56:26;;;;;;;27.43;21.67;;;-1.10;99.90;;;;;;5055747;28;20645;-73
2022/11/13 05:58:54;;;;;;;28.10;22.00;;;-1.20;99.90;;;;;;5055821;28;20252;-72
2022/11/13 06:01:22;;;;;;;29.17;21.40;;;-1.10;99.90;;;;;;5055652;28;20201;-73
2022/11/13 06:03:50;;;;;;;30.53;22.43;;;-1.20;99.90;;;;;;5056919;28;20275;-73
2022/11/13 06:06:20;;;;;;;27.57;20.83;;;-1.10;99.90;;;;;;5057178;28;20708;-73
2022/11/13 06:08:48;;;;;;;28.67;21.20;;;-1.10;99.90;;;;;;5057386;28;20657;-73
2022/11/13 06:11:16;;;;;;;25.70;21.63;;;-1.10;99.90;;;;;;5056202;28;20630;-72
2022/11/13 06:13:43;;;;;;;27.53;21.60;;;-1.10;99.90;;;;;;5055644;28;20255;-73
2022/11/13 06:16:12;;;;;;;26.93;22.13;;;-1.10;99.90;;;;;;5055667;28;20201;-72
2022/11/13 06:18:40;;;;;;;26.53;21.60;;;-1.10;99.90;;;;;;5055560;28;20205;-72
2022/11/13 06:21:09;;;;;;;28.17;21.90;;;-1.10;99.90;;;;;;5055651;28;20209;-72
2022/11/13 06:23:38;;;;;;;27.50;20.63;;;-1.00;99.90;;;;;;5055251;28;20226;-72
2022/11/13 06:26:07;;;;;;;27.97;21.80;;;-1.00;99.90;;;;;;5055035;28;20240;-72
2022/11/13 06:28:34;;;;;;;26.40;20.87;;;-1.00;99.90;;;;;;5055367;28;20197;-72
2022/11/13 06:31:04;;;;;;;26.20;20.67;;;-1.00;99.90;;;;;;5055075;28;20202;-72
2022/11/13 06:33:31;;;;;;;27.77;21.97;;;-1.10;99.90;;;;;;5055137;28;20204;-73
2022/11/13 06:36:00;;;;;;;27.07;20.60;;;-1.10;99.90;;;;;;5055145;28;20198;-72
2022/11/13 06:38:29;;;;;;;27.23;21.07;;;-0.90;99.90;;;;;;5054940;28;20232;-73
2022/11/13 06:40:58;;;;;;;25.50;19.90;;;-0.90;99.90;;;;;;5055158;28;20202;-73
2022/11/13 06:43:25;;;;;;;24.20;19.63;;;-0.90;99.90;;;;;;5055030;28;20233;-73
2022/11/13 06:45:51;;;;;;;26.90;21.13;;;-0.90;99.90;;;;;;5055137;28;20255;-72
2022/11/13 06:48:18;;;;;;;28.30;20.80;;;-0.90;99.90;;;;;;5054776;28;20263;-73
2022/11/13 06:50:44;;;;;;;27.37;21.37;;;-0.70;99.90;;;;;;5054473;28;20605;-73
2022/11/13 06:53:11;;;;;;;26.63;20.93;;;-0.70;99.90;;;;;;5054464;28;20609;-73
2022/11/13 06:55:43;;;;;;;25.53;21.07;;;-0.70;99.90;;;;;;5056541;28;20251;-73
2022/11/13 06:58:11;;;;;;;31.93;24.00;;;-0.60;99.90;;;;;;5056104;28;20305;-73
2022/11/13 07:00:37;;;;;;;37.60;29.80;;;-0.60;99.90;;;;;;5055029;28;20202;-72
2022/11/13 07:03:04;;;;;;;48.13;35.07;;;-0.50;99.90;;;;;;5055254;28;20198;-72
2022/11/13 07:05:31;;;;;;;36.50;30.37;;;-0.50;99.90;;;;;;5056469;28;20197;-72
2022/11/13 07:07:57;;;;;;;32.80;26.63;;;-0.40;99.90;;;;;;5059182;28;20229;-72
2022/11/13 07:10:24;;;;;;;36.27;27.47;;;-0.30;99.90;;;;;;5060667;28;20202;-74
2022/11/13 07:12:51;;;;;;;37.77;25.73;;;-0.20;99.90;;;;;;5060049;28;20197;-73
2022/11/13 07:15:19;;;;;;;31.53;25.40;;;-0.20;99.90;;;;;;5055202;28;20202;-72
2022/11/13 07:17:45;;;;;;;33.87;27.30;;;-0.10;99.90;;;;;;5056508;28;20198;-72
2022/11/13 07:20:12;;;;;;;32.07;25.57;;;-0.10;99.90;;;;;;5061439;28;20201;-72
2022/11/13 07:22:39;;;;;;;37.63;30.30;;;0.00;99.90;;;;;;5060351;28;20202;-71
2022/11/13 07:25:06;;;;;;;34.70;27.47;;;0.10;99.90;;;;;;5059000;28;20225;-72
2022/11/13 07:27:33;;;;;;;37.93;27.43;;;0.10;99.90;;;;;;5059008;28;20251;-72
2022/11/13 07:29:59;;;;;;;33.43;26.20;;;0.20;99.90;;;;;;5061638;28;20247;-72
2022/11/13 07:32:27;;;;;;;32.27;24.87;;;0.40;99.90;;;;;;5060824;28;20198;-72
2022/11/13 07:34:54;;;;;;;34.07;25.93;;;0.50;99.90;;;;;;5061192;28;20194;-72
2022/11/13 07:37:21;;;;;;;36.67;26.53;;;0.60;99.90;;;;;;5060220;28;20260;-72
2022/11/13 07:39:47;;;;;;;32.60;25.40;;;0.80;99.90;;;;;;5060571;28;20205;-72
2022/11/13 07:42:14;;;;;;;31.97;25.60;;;0.90;99.90;;;;;;5057737;28;20256;-72
2022/11/13 07:44:41;;;;;;;37.83;26.70;;;1.00;99.90;;;;;;5053636;28;20229;-71
2022/11/13 07:47:07;;;;;;;33.10;26.53;;;1.10;99.90;;;;;;5053940;28;20204;-72
2022/11/13 07:49:35;;;;;;;38.43;27.13;;;1.20;99.90;;;;;;5054012;28;20209;-71
2022/11/13 07:52:02;;;;;;;34.17;26.30;;;1.30;99.90;;;;;;5053963;28;20201;-73
2022/11/13 07:54:29;;;;;;;34.90;26.63;;;1.40;99.90;;;;;;5053446;28;20608;-72
2022/11/13 07:56:55;;;;;;;36.63;28.60;;;1.50;99.90;;;;;;5053743;28;20193;-73
2022/11/13 07:59:22;;;;;;;36.97;27.73;;;1.70;99.90;;;;;;5053450;28;20198;-73
2022/11/13 08:01:48;;;;;;;36.97;29.90;;;1.80;99.90;;;;;;5053119;28;20198;-72
2022/11/13 08:04:15;;;;;;;37.90;29.60;;;1.90;99.90;;;;;;5053619;28;20225;-72
2022/11/13 08:06:43;;;;;;;38.33;28.67;;;2.10;99.90;;;;;;5053610;28;20283;-72
2022/11/13 08:09:10;;;;;;;39.03;29.00;;;2.20;99.90;;;;;;5053558;28;20197;-72
2022/11/13 08:11:36;;;;;;;40.60;30.67;;;2.40;99.90;;;;;;5053454;28;20193;-72
2022/11/13 08:14:03;;;;;;;41.27;29.40;;;2.50;99.90;;;;;;5053314;28;20205;-72
2022/11/13 08:16:30;;;;;;;41.03;30.13;;;2.60;99.90;;;;;;5053190;28;20209;-73
2022/11/13 08:18:56;;;;;;;33.17;27.70;;;2.80;99.90;;;;;;5053724;28;20209;-72
2022/11/13 08:21:23;;;;;;;38.53;28.90;;;3.00;99.90;;;;;;5053290;28;20197;-73
2022/11/13 08:23:51;;;;;;;34.27;26.53;;;3.30;99.90;;;;;;5053519;28;20228;-73
2022/11/13 08:26:19;;;;;;;33.33;24.03;;;3.50;99.90;;;;;;5053221;28;20193;-71
2022/11/13 08:28:46;;;;;;;36.77;27.77;;;3.70;99.90;;;;;;5053084;28;20198;-72
2022/11/13 08:31:15;;;;;;;34.63;29.53;;;3.90;99.90;;;;;;5053062;28;20202;-71
2022/11/13 08:33:42;;;;;;;39.83;30.33;;;4.00;99.90;;;;;;5052635;28;20201;-71
2022/11/13 08:36:10;;;;;;;36.73;28.37;;;4.10;99.90;;;;;;5052762;28;20663;-72
2022/11/13 08:38:37;;;;;;;35.33;28.37;;;4.30;99.90;;;;;;5052852;28;20199;-72
2022/11/13 08:41:06;;;;;;;33.47;29.47;;;4.40;99.90;;;;;;5052533;28;20599;-72
2022/11/13 08:43:33;;;;;;;33.13;27.80;;;4.60;99.90;;;;;;5052557;28;20201;-72
2022/11/13 08:46:00;;;;;;;32.17;27.87;;;4.80;99.90;;;;;;5052539;28;20290;-72
2022/11/13 08:48:26;;;;;;;31.13;26.03;;;4.90;99.90;;;;;;5052840;28;20252;-73
2022/11/13 08:50:54;;;;;;;28.37;23.90;;;5.10;99.90;;;;;;5052823;28;20275;-73
2022/11/13 08:53:22;;;;;;;24.60;21.60;;;5.40;99.90;;;;;;5052656;28;20194;-72
2022/11/13 08:55:49;;;;;;;21.93;19.10;;;5.70;99.90;;;;;;5052615;28;20208;-72
2022/11/13 08:58:17;;;;;;;21.33;16.60;;;6.00;99.90;;;;;;5052443;28;20223;-72
2022/11/13 09:00:43;;;;;;;17.73;15.50;;;6.20;99.90;;;;;;5052723;28;20202;-72
2022/11/13 09:03:12;;;;;;;16.53;13.53;;;6.60;99.90;;;;;;5052644;28;20198;-71
2022/11/13 09:05:38;;;;;;;14.07;12.00;;;7.00;99.90;;;;;;5052381;28;20641;-72
2022/11/13 09:08:06;;;;;;;14.20;11.23;;;7.20;99.90;;;;;;5052243;28;20226;-73
2022/11/13 09:10:33;;;;;;;13.53;11.87;;;7.50;99.90;;;;;;5052436;28;20208;-73
2022/11/13 09:13:01;;;;;;;14.27;10.87;;;7.60;99.90;;;;;;5052282;28;20608;-71
2022/11/13 09:15:29;;;;;;;13.53;10.60;;;7.90;99.90;;;;;;5056059;28;20564;-73
2022/11/13 09:17:59;;;;;;;12.47;10.20;;;8.10;99.90;;;;;;5056295;28;20627;-73
2022/11/13 09:20:26;;;;;;;12.50;10.43;;;8.20;99.90;;;;;;5056146;28;20201;-73
2022/11/13 09:22:57;;;;;;;15.10;12.52;;;8.40;99.90;;;;;;5055980;28;20198;-73
2022/11/13 09:25:24;;;;;;;11.38;10.23;;;8.60;99.90;;;;;;5055756;28;20251;-73
2022/11/13 09:27:55;;;;;;;10.13;9.10;;;8.80;99.90;;;;;;5056054;28;20194;-73
2022/11/13 09:30:22;;;;;;;25.90;23.52;;;9.00;99.90;;;;;;5055979;28;20194;-72
2022/11/13 09:32:53;;;;;;;15.52;14.02;;;9.10;99.90;;;;;;5055829;28;20275;-74
2022/11/13 09:35:32;;;;;;;10.18;8.18;;;9.20;99.90;;;;;;5055792;28;20239;-72
2022/11/13 09:37:59;;;;;;;8.68;7.88;;;9.70;99.90;;;;;;5055613;28;20607;-74
2022/11/13 09:40:30;;;;;;;8.88;6.85;;;10.10;99.90;;;;;;5055507;28;20718;-74
2022/11/13 09:42:58;;;;;;;6.50;6.00;;;10.70;99.90;;;;;;5055790;28;20198;-73
2022/11/13 09:45:25;;;;;;;6.85;6.15;;;11.10;99.90;;;;;;5055459;28;20225;-73
2022/11/13 09:47:55;;;;;;;7.63;6.88;;;11.40;99.90;;;;;;5055555;28;20197;-73
2022/11/13 09:50:24;;;;;;;6.60;6.00;;;11.80;99.90;;;;;;5055310;28;20724;-73
2022/11/13 09:52:52;;;;;;;6.88;6.25;;;12.10;99.90;;;;;;5055379;28;20723;-73
2022/11/13 09:55:25;;;;;;;7.47;6.80;;;12.50;99.90;;;;;;5055487;28;20202;-73
2022/11/13 09:58:00;;;;;;;7.13;6.40;;;12.90;99.90;;;;;;5055438;28;20206;-74
2022/11/13 10:00:29;;;;;;;8.05;6.68;;;13.20;99.90;;;;;;5055289;28;20197;-74
2022/11/13 10:03:25;;;;;;;7.93;7.22;;;13.50;99.90;;;;;;5055048;28;20197;-75
2022/11/13 10:05:59;;;;;;;7.43;6.72;;;13.80;99.90;;;;;;5055036;28;20232;-74
2022/11/13 10:08:29;;;;;;;7.90;7.20;;;14.20;99.90;;;;;;5055119;28;20193;-74
2022/11/13 10:11:05;;;;;;;7.45;6.75;;;15.10;99.90;;;;;;5054903;28;20665;-76
2022/11/13 10:13:36;;;;;;;8.10;7.35;;;16.10;99.90;;;;;;5055151;28;20200;-75
2022/11/13 10:16:15;;;;;;;7.47;6.88;;;17.30;99.90;;;;;;5055232;28;20267;-75
2022/11/13 10:18:45;;;;;;;7.60;7.00;;;17.90;99.90;;;;;;5055003;28;20209;-75
2022/11/13 10:21:19;;;;;;;7.28;6.60;;;18.40;99.60;;;;;;5054976;28;20201;-76
2022/11/13 10:23:51;;;;;;;7.43;6.72;;;19.20;98.40;;;;;;5054856;28;20205;-74
2022/11/13 10:26:23;;;;;;;7.30;6.60;;;19.90;97.70;;;;;;5054557;28;20202;-76
2022/11/13 10:28:58;;;;;;;7.38;6.78;;;20.20;96.50;;;;;;5055027;28;20205;-74
2022/11/13 10:31:24;;;;;;;7.40;6.80;;;20.50;93.90;;;;;;5054885;28;20193;-75
2022/11/13 10:33:54;;;;;;;7.88;7.18;;;21.40;92.80;;;;;;5054648;28;20202;-75
2022/11/13 10:36:32;;;;;;;7.82;7.03;;;21.50;91.80;;;;;;5054849;28;20194;-76
2022/11/13 10:39:03;;;;;;;8.20;7.50;;;21.90;90.20;;;;;;5054723;28;20213;-75
2022/11/13 10:41:30;;;;;;;8.00;7.28;;;22.40;87.10;;;;;;5054593;28;20202;-76
2022/11/13 10:44:08;;;;;;;7.90;7.10;;;22.50;83.90;;;;;;5054447;28;20232;-74
2022/11/13 10:46:34;;;;;;;7.53;6.85;;;22.10;81.30;;;;;;5054316;28;20239;-76
2022/11/13 10:49:13;;;;;;;7.60;6.80;;;22.60;78.30;;;;;;5054518;28;20255;-74
2022/11/13 10:51:40;;;;;;;7.40;6.78;;;23.10;76.50;;;;;;5054479;28;20212;-76
2022/11/13 10:54:21;;;;;;;7.28;6.68;;;23.60;74.00;;;;;;5054359;28;20198;-76
2022/11/13 10:56:57;;;;;;;7.90;7.20;;;23.60;71.10;;;;;;5054289;28;20205;-76
2022/11/13 10:59:24;;;;;;;7.13;6.50;;;23.70;69.10;;;;;;5054430;28;20339;-76
2022/11/13 11:01:51;;;;;;;6.53;5.95;;;24.10;69.30;;;;;;5054144;28;20201;-75
2022/11/13 11:04:26;;;;;;;6.85;6.22;;;24.90;66.10;;;;;;5054135;28;20205;-76
2022/11/13 11:06:53;;;;;;;6.47;5.70;;;24.70;64.30;;;;;;5054049;28;20275;-76
2022/11/13 11:09:23;;;;;;;6.20;5.60;;;25.00;61.10;;;;;;5053981;28;20205;-76
2022/11/13 11:12:18;;;;;;;7.00;5.60;;;25.10;60.60;;;;;;5053920;28;20197;-76
2022/11/13 11:15:06;;;;;;;11.73;9.27;;;25.30;57.20;;;;;;5054065;28;20288;-75
2022/11/13 11:17:38;;;;;;;8.63;7.65;;;25.20;56.60;;;;;;5053828;28;20285;-76
2022/11/13 11:20:16;;;;;;;15.73;11.77;;;25.60;55.20;;;;;;5053793;28;20201;-77
2022/11/13 11:22:45;;;;;;;18.30;16.42;;;25.90;53.80;;;;;;5053970;28;20255;-76
2022/11/13 11:25:17;;;;;;;7.22;6.53;;;26.00;53.80;;;;;;5053981;28;20225;-76
2022/11/13 11:27:49;;;;;;;6.80;5.97;;;26.00;53.20;;;;;;5053867;28;20201;-76
2022/11/13 11:30:20;;;;;;;6.40;5.80;;;26.50;52.30;;;;;;5053594;28;20197;-76
2022/11/13 11:32:54;;;;;;;6.43;5.82;;;27.00;50.70;;;;;;5053809;28;20198;-75
2022/11/13 11:35:27;;;;;;;6.50;5.93;;;26.70;50.80;;;;;;5053735;28;20200;-75
2022/11/13 11:37:59;;;;;;;5.47;5.07;;;26.70;48.90;;;;;;5052615;28;20208;-76
2022/11/13 11:40:30;;;;;;;6.30;5.80;;;27.30;47.80;;;;;;5053444;28;20201;-76
2022/11/13 11:43:03;;;;;;;6.38;5.80;;;27.30;46.70;;;;;;5053294;28;20205;-76
2022/11/13 11:45:35;;;;;;;6.15;5.60;;;27.50;47.10;;;;;;5053345;28;20236;-75
2022/11/13 11:48:05;;;;;;;6.53;5.95;;;27.80;45.80;;;;;;5053298;28;20198;-76
2022/11/13 11:50:39;;;;;;;6.30;5.70;;;27.50;45.60;;;;;;5053260;28;20667;-76
2022/11/13 11:53:12;;;;;;;6.10;5.60;;;27.50;44.70;;;;;;5053226;28;20219;-76
2022/11/13 11:56:04;;;;;;;5.95;5.35;;;27.80;44.50;;;;;;5053323;28;20201;-77
2022/11/13 11:58:54;;;;;;;7.13;5.40;;;28.30;43.10;;;;;;5049964;28;20608;-76
2022/11/13 12:01:30;;;;;;;5.97;5.57;;;28.00;41.00;;;;;;5053030;28;20196;-75
2022/11/13 12:04:13;;;;;;;6.10;5.60;;;27.80;39.80;;;;;;5053216;28;20208;-76
2022/11/13 12:06:56;;;;;;;6.30;5.80;;;27.90;39.70;;;;;;5052836;28;20236;-75
2022/11/13 12:09:27;;;;;;;6.20;5.70;;;28.00;39.50;;;;;;5052962;28;20193;-77
2022/11/13 12:12:03;;;;;;;6.07;5.57;;;27.90;39.10;;;;;;5052915;28;20259;-76
2022/11/13 12:14:41;;;;;;;6.00;5.00;;;27.70;38.70;;;;;;5052844;28;20730;-76
2022/11/13 12:17:22;;;;;;;5.53;5.10;;;28.00;38.00;;;;;;5053088;28;20603;-75
2022/11/13 12:20:00;;;;;;;6.10;5.50;;;27.90;37.90;;;;;;5052944;28;20252;-76
2022/11/13 12:22:38;;;;;;;7.40;5.93;;;28.40;37.10;;;;;;5052784;28;20251;-76
2022/11/13 12:25:18;;;;;;;5.93;5.35;;;28.60;36.90;;;;;;5052852;28;20231;-76
2022/11/13 12:27:51;;;;;;;5.30;4.85;;;28.80;37.80;;;;;;5052679;28;20648;-76
2022/11/13 12:30:20;;;;;;;5.30;4.90;;;28.90;36.40;;;;;;5052651;28;20537;-76
2022/11/13 12:33:01;;;;;;;5.93;5.30;;;29.10;36.20;;;;;;5053088;28;20270;-75
2022/11/13 12:35:29;;;;;;;6.00;5.32;;;29.40;34.90;;;;;;5052846;28;20230;-76
2022/11/13 12:38:03;;;;;;;5.13;4.70;;;29.30;35.90;;;;;;5052797;28;20223;-75
2022/11/13 12:40:36;;;;;;;5.20;4.70;;;29.20;34.40;;;;;;5052731;28;20201;-76
2022/11/13 12:43:23;;;;;;;6.00;4.93;;;29.30;34.30;;;;;;5052700;28;20251;-76
2022/11/13 12:45:53;;;;;;;5.47;4.97;;;29.90;33.70;;;;;;5052633;28;20225;-75